createdAt,value
2022-09-23T00:00:00.260Z,77.53
2022-09-23T00:00:10.353Z,77.42
2022-09-23T00:00:20.434Z,77.53
2022-09-23T00:00:30.532Z,77.42
2022-09-23T00:00:40.603Z,77.42
2022-09-23T00:00:50.652Z,77.42
2022-09-23T00:01:00.800Z,77.42
2022-09-23T00:01:10.969Z,77.42
2022-09-23T00:01:20.974Z,77.42
2022-09-23T00:01:31.121Z,77.42
2022-09-23T00:01:41.203Z,77.42
2022-09-23T00:01:51.203Z,77.32
2022-09-23T00:02:01.322Z,77.32
2022-09-23T00:02:11.446Z,77.32
2022-09-23T00:02:21.571Z,77.32
2022-09-23T00:02:31.693Z,77.32
2022-09-23T00:02:41.831Z,77.22
2022-09-23T00:02:52.016Z,77.22
2022-09-23T00:03:01.987Z,77.22
2022-09-23T00:03:12.051Z,77.22
2022-09-23T00:03:22.132Z,77.22
2022-09-23T00:03:32.215Z,77.22
2022-09-23T00:03:42.303Z,77.22
2022-09-23T00:03:52.393Z,77.12
2022-09-23T00:04:02.492Z,77.12
2022-09-23T00:04:12.563Z,77.12
2022-09-23T00:04:22.661Z,77.12
2022-09-23T00:04:32.733Z,77.12
2022-09-23T00:04:42.825Z,77.12
2022-09-23T00:04:52.903Z,77.12
2022-09-23T00:05:02.991Z,77.01
2022-09-23T00:05:13.082Z,77.01
2022-09-23T00:05:23.169Z,77.01
2022-09-23T00:05:33.243Z,77.01
2022-09-23T00:05:43.323Z,77.01
2022-09-23T00:05:53.475Z,77.01
2022-09-23T00:06:03.585Z,77.01
2022-09-23T00:06:13.740Z,77.01
2022-09-23T00:06:23.843Z,77.01
2022-09-23T00:06:33.923Z,77.01
2022-09-23T00:06:44.001Z,77.01
2022-09-23T00:06:54.079Z,77.01
2022-09-23T00:07:04.163Z,77.01
2022-09-23T00:07:14.252Z,77.01
2022-09-23T00:07:24.324Z,77.01
2022-09-23T00:07:34.403Z,76.91
2022-09-23T00:07:44.503Z,76.91
2022-09-23T00:07:54.573Z,76.91
2022-09-23T00:08:04.643Z,76.91
2022-09-23T00:08:14.721Z,76.91
2022-09-23T00:08:24.803Z,76.91
2022-09-23T00:08:34.875Z,76.91
2022-09-23T00:08:44.950Z,76.91
2022-09-23T00:08:55.012Z,76.91
2022-09-23T00:09:05.244Z,76.91
2022-09-23T00:09:15.184Z,76.91
2022-09-23T00:09:25.262Z,76.91
2022-09-23T00:09:35.331Z,76.91
2022-09-23T00:09:45.423Z,76.81
2022-09-23T00:09:55.503Z,76.91
2022-09-23T00:10:05.611Z,76.81
2022-09-23T00:10:15.692Z,76.81
2022-09-23T00:10:25.797Z,76.81
2022-09-23T00:10:35.883Z,76.81
2022-09-23T00:10:45.960Z,76.81
2022-09-23T00:10:56.022Z,76.81
2022-09-23T00:11:06.105Z,76.81
2022-09-23T00:11:16.193Z,76.81
2022-09-23T00:11:26.276Z,76.81
2022-09-23T00:11:36.353Z,76.81
2022-09-23T00:11:46.443Z,76.81
2022-09-23T00:11:56.503Z,76.81
2022-09-23T00:12:09.078Z,76.81
2022-09-23T00:12:16.609Z,76.81
2022-09-23T00:12:26.722Z,76.81
2022-09-23T00:12:36.790Z,76.81
2022-09-23T00:12:46.872Z,76.81
2022-09-23T00:12:56.952Z,76.81
2022-09-23T00:13:07.019Z,76.81
2022-09-23T00:13:17.082Z,76.81
2022-09-23T00:13:27.161Z,76.81
2022-09-23T00:13:37.224Z,76.91
2022-09-23T00:13:47.306Z,76.81
2022-09-23T00:13:57.376Z,76.81
2022-09-23T00:14:07.442Z,76.81
2022-09-23T00:14:17.510Z,76.81
2022-09-23T00:14:28.457Z,76.81
2022-09-23T00:14:37.603Z,76.81
2022-09-23T00:14:47.732Z,76.81
2022-09-23T00:14:57.841Z,76.81
2022-09-23T00:15:07.921Z,76.81
2022-09-23T00:15:17.993Z,76.71
2022-09-23T00:15:28.072Z,76.81
2022-09-23T00:15:38.171Z,76.81
2022-09-23T00:15:48.249Z,76.81
2022-09-23T00:15:58.322Z,76.81
2022-09-23T00:16:08.422Z,76.81
2022-09-23T00:16:18.595Z,76.81
2022-09-23T00:16:28.787Z,76.81
2022-09-23T00:16:38.764Z,76.81
2022-09-23T00:16:48.891Z,76.81
2022-09-23T00:16:59.065Z,76.71
2022-09-23T00:17:09.198Z,76.71
2022-09-23T00:17:19.316Z,76.71
2022-09-23T00:17:29.412Z,76.71
2022-09-23T00:17:39.505Z,76.71
2022-09-23T00:17:49.602Z,76.71
2022-09-23T00:17:59.692Z,76.71
2022-09-23T00:18:09.780Z,76.71
2022-09-23T00:18:19.860Z,76.71
2022-09-23T00:18:29.942Z,76.71
2022-09-23T00:18:40.044Z,76.71
2022-09-23T00:18:50.133Z,76.71
2022-09-23T00:19:00.211Z,76.71
2022-09-23T00:19:10.531Z,76.71
2022-09-23T00:19:20.460Z,76.71
2022-09-23T00:19:30.562Z,76.71
2022-09-23T00:19:40.657Z,76.71
2022-09-23T00:19:50.742Z,76.71
2022-09-23T00:20:00.830Z,76.61
2022-09-23T00:20:10.923Z,76.61
2022-09-23T00:20:21.029Z,76.61
2022-09-23T00:20:31.141Z,76.61
2022-09-23T00:20:41.231Z,76.61
2022-09-23T00:20:51.321Z,76.50
2022-09-23T00:21:01.402Z,76.50
2022-09-23T00:21:11.483Z,76.50
2022-09-23T00:21:21.594Z,76.50
2022-09-23T00:21:31.691Z,76.50
2022-09-23T00:21:41.782Z,76.50
2022-09-23T00:21:51.871Z,76.50
2022-09-23T00:22:01.964Z,76.50
2022-09-23T00:22:12.079Z,76.50
2022-09-23T00:22:22.171Z,76.50
2022-09-23T00:22:32.262Z,76.50
2022-09-23T00:22:42.362Z,76.50
2022-09-23T00:22:52.452Z,76.50
2022-09-23T00:23:02.446Z,76.50
2022-09-23T00:23:12.529Z,76.50
2022-09-23T00:23:22.619Z,76.50
2022-09-23T00:23:32.752Z,76.50
2022-09-23T00:23:42.950Z,76.50
2022-09-23T00:23:52.932Z,76.50
2022-09-23T00:24:03.021Z,76.50
2022-09-23T00:24:13.130Z,76.50
2022-09-23T00:24:23.242Z,76.50
2022-09-23T00:24:33.341Z,76.50
2022-09-23T00:24:43.439Z,76.50
2022-09-23T00:24:53.554Z,76.50
2022-09-23T00:25:03.695Z,76.50
2022-09-23T00:25:13.818Z,76.50
2022-09-23T00:25:23.921Z,76.50
2022-09-23T00:25:34.015Z,76.40
2022-09-23T00:25:44.112Z,76.50
2022-09-23T00:25:54.223Z,76.50
2022-09-23T00:26:04.319Z,76.50
2022-09-23T00:26:14.421Z,76.50
2022-09-23T00:26:24.531Z,76.50
2022-09-23T00:26:34.603Z,76.50
2022-09-23T00:26:44.710Z,76.50
2022-09-23T00:26:54.791Z,76.50
2022-09-23T00:27:04.872Z,76.50
2022-09-23T00:27:14.951Z,76.50
2022-09-23T00:27:25.039Z,76.50
2022-09-23T00:27:35.111Z,76.50
2022-09-23T00:27:45.200Z,76.61
2022-09-23T00:27:55.281Z,76.61
2022-09-23T00:28:05.381Z,76.61
2022-09-23T00:28:15.532Z,76.61
2022-09-23T00:28:25.609Z,76.61
2022-09-23T00:28:35.705Z,76.61
2022-09-23T00:28:45.812Z,76.61
2022-09-23T00:28:55.916Z,76.61
2022-09-23T00:29:06.008Z,76.61
2022-09-23T00:29:16.108Z,76.61
2022-09-23T00:29:26.192Z,76.61
2022-09-23T00:29:36.271Z,76.61
2022-09-23T00:29:46.341Z,76.71
2022-09-23T00:29:56.422Z,76.71
2022-09-23T00:30:06.503Z,76.71
2022-09-23T00:30:16.622Z,76.71
2022-09-23T00:30:26.781Z,76.71
2022-09-23T00:30:36.963Z,76.81
2022-09-23T00:30:46.905Z,76.81
2022-09-23T00:30:57.159Z,76.81
2022-09-23T00:31:07.102Z,76.81
2022-09-23T00:31:17.252Z,76.81
2022-09-23T00:31:27.254Z,76.81
2022-09-23T00:31:37.308Z,76.81
2022-09-23T00:31:47.391Z,76.81
2022-09-23T00:31:57.511Z,76.81
2022-09-23T00:32:07.595Z,76.81
2022-09-23T00:32:17.680Z,76.81
2022-09-23T00:32:27.761Z,76.81
2022-09-23T00:32:37.850Z,76.81
2022-09-23T00:32:47.959Z,76.81
2022-09-23T00:32:58.041Z,76.81
2022-09-23T00:33:08.130Z,76.81
2022-09-23T00:33:18.212Z,76.81
2022-09-23T00:33:28.302Z,76.91
2022-09-23T00:33:38.398Z,76.91
2022-09-23T00:33:48.491Z,76.81
2022-09-23T00:33:58.582Z,76.91
2022-09-23T00:34:08.671Z,76.91
2022-09-23T00:34:18.771Z,76.91
2022-09-23T00:34:28.873Z,76.91
2022-09-23T00:34:38.961Z,76.91
2022-09-23T00:34:49.072Z,76.91
2022-09-23T00:34:59.171Z,76.91
2022-09-23T00:35:09.267Z,76.91
2022-09-23T00:35:19.369Z,76.91
2022-09-23T00:35:29.474Z,77.01
2022-09-23T00:35:39.561Z,77.01
2022-09-23T00:35:49.650Z,77.01
2022-09-23T00:35:59.739Z,77.01
2022-09-23T00:36:09.852Z,77.01
2022-09-23T00:36:19.960Z,77.01
2022-09-23T00:36:30.054Z,77.01
2022-09-23T00:36:40.157Z,77.01
2022-09-23T00:36:50.290Z,77.01
2022-09-23T00:37:00.383Z,77.01
2022-09-23T00:37:10.464Z,77.01
2022-09-23T00:37:20.550Z,77.01
2022-09-23T00:37:30.639Z,77.01
2022-09-23T00:37:40.749Z,77.01
2022-09-23T00:37:50.841Z,77.01
2022-09-23T00:38:00.952Z,77.01
2022-09-23T00:38:11.050Z,77.01
2022-09-23T00:38:21.141Z,77.01
2022-09-23T00:38:31.230Z,77.01
2022-09-23T00:38:41.329Z,77.01
2022-09-23T00:38:51.410Z,77.01
2022-09-23T00:39:03.304Z,77.05
2022-09-23T00:39:11.532Z,77.12
2022-09-23T00:39:21.622Z,77.12
2022-09-23T00:39:31.691Z,77.12
2022-09-23T00:39:41.779Z,77.01
2022-09-23T00:39:51.870Z,77.15
2022-09-23T00:40:01.963Z,77.15
2022-09-23T00:40:12.084Z,77.15
2022-09-23T00:40:22.214Z,77.15
2022-09-23T00:40:32.406Z,77.12
2022-09-23T00:40:42.534Z,77.15
2022-09-23T00:40:52.660Z,77.12
2022-09-23T00:41:02.747Z,77.12
2022-09-23T00:41:12.851Z,77.26
2022-09-23T00:41:22.990Z,77.26
2022-09-23T00:41:33.108Z,77.15
2022-09-23T00:41:43.212Z,77.15
2022-09-23T00:41:53.281Z,77.15
2022-09-23T00:42:03.361Z,77.15
2022-09-23T00:42:13.451Z,77.15
2022-09-23T00:42:23.539Z,77.15
2022-09-23T00:42:33.670Z,77.15
2022-09-23T00:42:43.750Z,77.15
2022-09-23T00:42:53.831Z,77.15
2022-09-23T00:43:03.919Z,77.15
2022-09-23T00:43:13.993Z,77.15
2022-09-23T00:43:24.082Z,77.01
2022-09-23T00:43:34.168Z,77.05
2022-09-23T00:43:44.240Z,77.01
2022-09-23T00:43:54.330Z,77.01
2022-09-23T00:44:04.418Z,77.05
2022-09-23T00:44:14.529Z,77.05
2022-09-23T00:44:24.610Z,77.01
2022-09-23T00:44:34.682Z,77.05
2022-09-23T00:44:44.784Z,77.05
2022-09-23T00:44:54.867Z,77.01
2022-09-23T00:45:04.930Z,77.01
2022-09-23T00:45:15.019Z,77.05
2022-09-23T00:45:25.121Z,77.05
2022-09-23T00:45:35.218Z,77.05
2022-09-23T00:45:45.331Z,77.05
2022-09-23T00:45:55.504Z,77.05
2022-09-23T00:46:05.456Z,77.05
2022-09-23T00:46:15.630Z,76.95
2022-09-23T00:46:25.801Z,76.95
2022-09-23T00:46:35.889Z,76.95
2022-09-23T00:46:45.950Z,76.95
2022-09-23T00:46:56.020Z,76.95
2022-09-23T00:47:06.089Z,76.95
2022-09-23T00:47:16.160Z,76.95
2022-09-23T00:47:26.238Z,76.84
2022-09-23T00:47:36.310Z,76.84
2022-09-23T00:47:46.381Z,76.84
2022-09-23T00:47:56.490Z,76.84
2022-09-23T00:48:06.570Z,76.84
2022-09-23T00:48:16.659Z,76.84
2022-09-23T00:48:26.739Z,76.84
2022-09-23T00:48:36.809Z,76.84
2022-09-23T00:48:46.899Z,76.84
2022-09-23T00:48:56.990Z,76.95
2022-09-23T00:49:07.049Z,76.95
2022-09-23T00:49:17.177Z,77.05
2022-09-23T00:49:27.260Z,77.05
2022-09-23T00:49:37.340Z,77.05
2022-09-23T00:49:47.412Z,77.05
2022-09-23T00:49:57.489Z,77.05
2022-09-23T00:50:07.569Z,77.05
2022-09-23T00:50:17.660Z,77.15
2022-09-23T00:50:27.743Z,77.15
2022-09-23T00:50:37.827Z,77.15
2022-09-23T00:50:47.951Z,77.15
2022-09-23T00:50:58.040Z,77.26
2022-09-23T00:51:08.169Z,77.15
2022-09-23T00:51:18.260Z,77.26
2022-09-23T00:51:28.374Z,77.26
2022-09-23T00:51:38.458Z,77.26
2022-09-23T00:51:48.553Z,77.26
2022-09-23T00:51:58.630Z,77.26
2022-09-23T00:52:08.724Z,77.26
2022-09-23T00:52:18.799Z,77.26
2022-09-23T00:52:28.890Z,77.26
2022-09-23T00:52:38.978Z,77.26
2022-09-23T00:52:49.136Z,77.26
2022-09-23T00:52:59.219Z,77.15
2022-09-23T00:53:09.312Z,77.15
2022-09-23T00:53:19.401Z,77.15
2022-09-23T00:53:29.501Z,77.15
2022-09-23T00:53:39.587Z,77.15
2022-09-23T00:53:49.669Z,77.15
2022-09-23T00:53:59.749Z,77.15
2022-09-23T00:54:09.866Z,77.15
2022-09-23T00:54:19.937Z,77.15
2022-09-23T00:54:30.021Z,77.15
2022-09-23T00:54:40.130Z,77.15
2022-09-23T00:54:50.208Z,77.15
2022-09-23T00:55:00.286Z,77.15
2022-09-23T00:55:10.378Z,77.15
2022-09-23T00:55:20.506Z,77.15
2022-09-23T00:55:30.588Z,77.15
2022-09-23T00:55:40.677Z,77.15
2022-09-23T00:55:50.780Z,77.15
2022-09-23T00:56:00.859Z,77.15
2022-09-23T00:56:10.957Z,77.15
2022-09-23T00:56:21.058Z,77.26
2022-09-23T00:56:31.164Z,77.26
2022-09-23T00:56:41.279Z,77.26
2022-09-23T00:56:51.360Z,77.26
2022-09-23T00:57:01.458Z,77.26
2022-09-23T00:57:11.548Z,77.26
2022-09-23T00:57:21.639Z,77.26
2022-09-23T00:57:31.731Z,77.36
2022-09-23T00:57:41.819Z,77.36
2022-09-23T00:57:51.950Z,77.36
2022-09-23T00:58:02.039Z,77.36
2022-09-23T00:58:12.128Z,77.36
2022-09-23T00:58:22.216Z,77.36
2022-09-23T00:58:32.300Z,77.36
2022-09-23T00:58:42.388Z,77.36
2022-09-23T00:58:52.478Z,77.36
2022-09-23T00:59:02.578Z,77.36
2022-09-23T00:59:12.679Z,77.46
2022-09-23T00:59:22.767Z,77.46
2022-09-23T00:59:32.847Z,77.46
2022-09-23T00:59:42.938Z,77.46
2022-09-23T00:59:53.025Z,77.46
2022-09-23T01:00:03.134Z,77.46
2022-09-23T01:00:13.236Z,77.46
2022-09-23T01:00:23.385Z,77.46
2022-09-23T01:00:33.438Z,77.46
2022-09-23T01:00:43.521Z,77.46
2022-09-23T01:00:53.656Z,77.46
2022-09-23T01:01:03.670Z,77.46
2022-09-23T01:01:13.792Z,77.46
2022-09-23T01:01:23.910Z,77.46
2022-09-23T01:01:34.035Z,77.46
2022-09-23T01:01:44.241Z,77.46
2022-09-23T01:01:54.219Z,77.46
2022-09-23T01:02:04.359Z,77.46
2022-09-23T01:02:14.465Z,77.46
2022-09-23T01:02:24.568Z,77.46
2022-09-23T01:02:34.707Z,77.46
2022-09-23T01:02:44.745Z,77.46
2022-09-23T01:02:54.702Z,77.46
2022-09-23T01:03:04.779Z,77.46
2022-09-23T01:03:14.849Z,77.46
2022-09-23T01:03:24.940Z,77.46
2022-09-23T01:03:35.028Z,77.46
2022-09-23T01:03:45.102Z,77.46
2022-09-23T01:03:55.171Z,77.46
2022-09-23T01:04:05.255Z,77.46
2022-09-23T01:04:15.328Z,77.46
2022-09-23T01:04:25.417Z,77.46
2022-09-23T01:04:35.493Z,77.50
2022-09-23T01:04:45.577Z,77.50
2022-09-23T01:04:55.691Z,77.46
2022-09-23T01:05:05.788Z,77.46
2022-09-23T01:05:15.951Z,77.50
2022-09-23T01:05:26.048Z,77.46
2022-09-23T01:05:36.128Z,77.50
